Check out our new BloomSky Weather System.

Active alerts

Fort Bend, TX
  Details for Fort Bend, TX River Flood Warning  +1 additional alert
Houston, TX
  Details for Houston, TX Wind Advisory
Galveston, TX
  Details for Galveston, TX Wind Advisory


Thunder radar  blitzortung!


Rain radar more information rain snow radar


Visit our other weather sites:

Template documentation
and downloads

And another site



Weather Underground History page Text

Daily Summary for April 8, 2017 Units:  English    Metric   Both
« Previous Day
Next Day »
Daily Weekly Monthly Yearly Custom
  High: Low: Average:
Temperature: TemperatureF °F 54.1 °F 69.2 °F
Dew Point: DewpointF °F 52.0 °F 56.6 °F
Humidity: Humidity % 43 % 66 %
Wind Speed: WindSpeedMPH mph 0.0 mph 4.2 mph
Wind Gust: WindSpeedGustMPH mph - -
Wind:- - SSE
Pressure: PressureIn in 29.94 in -
Precipitation: 0.00 in    
Historical Graphs
 
 
Tabular Data for April 8, 2017
Time Temperature Dew Point Pressure Wind Wind Speed Wind Gust Humidity Rainfall Rate (Hourly)
TemperatureF °F DewpointF °F PressureIn in Calm     Humidity % HourlyPrecipIn in
00:04 65.1 °F 52.2 °F 30.11 in SSW 2.0 mph 4.0 mph 63 % 0.00 in
00:09 64.9 °F 52.0 °F 30.11 in SSW 2.0 mph 4.0 mph 63 % 0.00 in
00:19 64.6 °F 52.5 °F 30.10 in South 3.0 mph 4.0 mph 65 % 0.00 in
00:24 64.4 °F 52.3 °F 30.10 in South 3.0 mph 4.0 mph 65 % 0.00 in
00:29 64.2 °F 52.7 °F 30.10 in SSW 2.0 mph 4.0 mph 66 % 0.00 in
00:34 64.2 °F 52.7 °F 30.10 in SSW 2.0 mph 4.0 mph 66 % 0.00 in
00:39 64.2 °F 53.1 °F 30.10 in South 2.0 mph 4.0 mph 67 % 0.00 in
00:44 64.0 °F 52.9 °F 30.09 in Calm   4.0 mph 67 % 0.00 in
00:49 63.9 °F 53.1 °F 30.10 in SSW 3.0 mph 4.0 mph 68 % 0.00 in
00:54 63.7 °F 52.9 °F 30.10 in SSW 1.0 mph 4.0 mph 68 % 0.00 in
00:59 63.7 °F 52.9 °F 30.10 in Calm   3.0 mph 68 % 0.00 in
01:04 63.5 °F 53.1 °F 30.10 in South 1.0 mph 3.0 mph 69 % 0.00 in
01:09 63.3 °F 53.1 °F 30.10 in South 1.0 mph 2.0 mph 69 % 0.00 in
01:14 63.1 °F 53.2 °F 30.10 in SSW 1.0 mph 2.0 mph 70 % 0.00 in
01:19 63.0 °F 53.1 °F 30.10 in SSW 1.0 mph 2.0 mph 70 % 0.00 in
01:24 62.8 °F 53.2 °F 30.09 in Calm   2.0 mph 71 % 0.00 in
01:29 62.4 °F 53.2 °F 30.09 in Calm   2.0 mph 72 % 0.00 in
01:34 62.2 °F 53.4 °F 30.09 in SSW 1.0 mph 2.0 mph 73 % 0.00 in
01:39 61.9 °F 52.7 °F 30.09 in Calm   2.0 mph 72 % 0.00 in
01:44 61.5 °F 52.7 °F 30.09 in SSW 1.0 mph 2.0 mph 73 % 0.00 in
01:49 61.2 °F 52.9 °F 30.09 in Calm   2.0 mph 74 % 0.00 in
01:54 60.8 °F 52.9 °F 30.09 in Calm   1.0 mph 75 % 0.00 in
01:59 60.4 °F 52.9 °F 30.09 in Calm   1.0 mph 76 % 0.00 in
02:04 60.3 °F 53.1 °F 30.09 in Calm   1.0 mph 77 % 0.00 in
02:09 59.7 °F 52.9 °F 30.08 in Calm   1.0 mph 78 % 0.00 in
02:14 59.4 °F 52.5 °F 30.08 in Calm   1.0 mph 78 % 0.00 in
02:19 59.0 °F 52.9 °F 30.08 in Calm     80 % 0.00 in
02:24 58.8 °F 53.1 °F 30.08 in Calm     81 % 0.00 in
02:29 58.5 °F 53.1 °F 30.08 in Calm     82 % 0.00 in
02:34 58.3 °F 52.9 °F 30.08 in Calm     82 % 0.00 in
02:39 57.9 °F 53.1 °F 30.08 in Calm     84 % 0.00 in
02:44 57.7 °F 52.9 °F 30.08 in Calm     84 % 0.00 in
02:49 57.6 °F 53.1 °F 30.08 in Calm     85 % 0.00 in
02:54 57.4 °F 52.9 °F 30.08 in Calm     85 % 0.00 in
02:59 57.2 °F 52.7 °F 30.08 in Calm     85 % 0.00 in
03:04 57.0 °F 52.5 °F 30.08 in Calm     85 % 0.00 in
03:09 56.8 °F 52.7 °F 30.08 in Calm     86 % 0.00 in
03:14 56.7 °F 52.5 °F 30.07 in Calm     86 % 0.00 in
03:19 56.5 °F 52.3 °F 30.07 in Calm     86 % 0.00 in
03:24 56.5 °F 52.7 °F 30.07 in Calm     87 % 0.00 in
03:29 56.1 °F 52.3 °F 30.07 in Calm     87 % 0.00 in
03:34 56.5 °F 53.2 °F 30.07 in Calm     89 % 0.00 in
03:44 56.7 °F 53.4 °F 30.07 in Calm     89 % 0.00 in
03:49 56.5 °F 53.2 °F 30.06 in Calm     89 % 0.00 in
03:54 56.5 °F 53.2 °F 30.06 in Calm     89 % 0.00 in
03:59 56.3 °F 53.1 °F 30.06 in Calm     89 % 0.00 in
04:04 56.1 °F 53.2 °F 30.06 in Calm     90 % 0.00 in
04:14 55.9 °F 53.1 °F 30.06 in Calm     90 % 0.00 in
04:19 55.9 °F 53.4 °F 30.06 in Calm     91 % 0.00 in
04:24 55.8 °F 53.2 °F 30.06 in Calm     91 % 0.00 in
04:29 55.8 °F 53.2 °F 30.06 in Calm     91 % 0.00 in
04:34 55.6 °F 53.1 °F 30.06 in Calm     91 % 0.00 in
04:39 55.2 °F 52.7 °F 30.06 in Calm     91 % 0.00 in
04:44 55.0 °F 52.5 °F 30.06 in Calm     91 % 0.00 in
04:49 55.0 °F 52.7 °F 30.06 in Calm     92 % 0.00 in
04:54 55.0 °F 52.7 °F 30.06 in Calm     92 % 0.00 in
04:59 55.0 °F 52.7 °F 30.06 in Calm     92 % 0.00 in
05:04 54.9 °F 52.5 °F 30.06 in Calm     92 % 0.00 in
05:09 54.9 °F 52.5 °F 30.06 in Calm     92 % 0.00 in
05:14 54.9 °F 52.9 °F 30.05 in Calm     93 % 0.00 in
05:19 55.2 °F 53.6 °F 30.05 in Calm     94 % 0.00 in
05:24 55.6 °F 53.6 °F 30.06 in Calm   1.0 mph 93 % 0.00 in
05:29 55.2 °F 53.2 °F 30.06 in Calm   1.0 mph 93 % 0.00 in
05:34 55.2 °F 53.2 °F 30.06 in Calm   1.0 mph 93 % 0.00 in
05:39 55.0 °F 53.1 °F 30.06 in Calm   1.0 mph 93 % 0.00 in
05:44 54.9 °F 52.9 °F 30.06 in Calm   1.0 mph 93 % 0.00 in
05:49 54.3 °F 52.3 °F 30.06 in Calm   1.0 mph 93 % 0.00 in
05:54 54.1 °F 52.2 °F 30.06 in Calm     93 % 0.00 in
05:59 54.3 °F 52.3 °F 30.06 in Calm     93 % 0.00 in
06:04 54.7 °F 53.1 °F 30.06 in Calm     94 % 0.00 in
06:09 54.7 °F 53.1 °F 30.06 in Calm     94 % 0.00 in
06:14 54.7 °F 53.1 °F 30.06 in Calm     94 % 0.00 in
06:19 54.5 °F 52.9 °F 30.05 in Calm     94 % 0.00 in
06:25 54.7 °F 53.1 °F 30.06 in Calm     94 % 0.00 in
06:30 54.7 °F 53.1 °F 30.06 in Calm     94 % 0.00 in
06:35 54.9 °F 53.4 °F 30.06 in Calm     95 % 0.00 in
06:40 54.9 °F 53.2 °F 30.06 in Calm     94 % 0.00 in
06:45 54.9 °F 53.2 °F 30.05 in Calm     94 % 0.00 in
06:50 54.9 °F 53.4 °F 30.06 in Calm     95 % 0.00 in
06:55 55.0 °F 53.6 °F 30.05 in Calm     95 % 0.00 in
07:00 55.6 °F 54.1 °F 30.06 in Calm     95 % 0.00 in
07:05 55.6 °F 54.1 °F 30.06 in Calm   1.0 mph 95 % 0.00 in
07:10 55.6 °F 54.1 °F 30.06 in Calm   1.0 mph 95 % 0.00 in
07:15 55.6 °F 54.1 °F 30.06 in Calm   1.0 mph 95 % 0.00 in
07:20 55.6 °F 54.1 °F 30.06 in Calm   1.0 mph 95 % 0.00 in
07:25 55.8 °F 54.3 °F 30.06 in Calm     95 % 0.00 in
07:30 55.9 °F 54.5 °F 30.06 in Calm   1.0 mph 95 % 0.00 in
07:35 56.1 °F 54.7 °F 30.06 in Calm   1.0 mph 95 % 0.00 in
07:40 56.3 °F 54.9 °F 30.06 in Calm     95 % 0.00 in
07:45 56.5 °F 55.0 °F 30.06 in Calm     95 % 0.00 in
07:50 57.0 °F 55.6 °F 30.06 in Calm     95 % 0.00 in
08:00 59.4 °F 58.3 °F 30.07 in ESE 1.0 mph 3.0 mph 96 % 0.00 in
08:05 60.3 °F 58.5 °F 30.07 in SSE 1.0 mph 3.0 mph 94 % 0.00 in
08:10 61.3 °F 59.4 °F 30.07 in South 2.0 mph 3.0 mph 93 % 0.00 in
08:15 62.4 °F 59.7 °F 30.07 in SE 2.0 mph 3.0 mph 91 % 0.00 in
08:20 63.3 °F 60.1 °F 30.07 in SSE 1.0 mph 4.0 mph 89 % 0.00 in
08:25 64.0 °F 60.1 °F 30.07 in South 2.0 mph 4.0 mph 87 % 0.00 in
08:30 64.9 °F 59.9 °F 30.07 in SSE 5.0 mph 6.0 mph 84 % 0.00 in
08:35 65.5 °F 59.9 °F 30.06 in SSE 2.0 mph 6.0 mph 82 % 0.00 in
08:40 65.8 °F 59.9 °F 30.07 in South 2.0 mph 8.0 mph 81 % 0.00 in
08:45 66.7 °F 60.4 °F 30.07 in South 3.0 mph 8.0 mph 80 % 0.00 in
08:50 67.3 °F 60.3 °F 30.07 in SSE 4.0 mph 8.0 mph 78 % 0.00 in
08:55 67.8 °F 59.9 °F 30.07 in SE 7.0 mph 7.0 mph 76 % 0.00 in
09:00 68.4 °F 60.4 °F 30.07 in South 5.0 mph 7.0 mph 76 % 0.00 in
09:05 69.1 °F 60.4 °F 30.07 in SSE 4.0 mph 8.0 mph 74 % 0.00 in
09:10 69.8 °F 61.5 °F 30.07 in SW 4.0 mph 8.0 mph 75 % 0.00 in
09:15 70.5 °F 61.0 °F 30.07 in South 6.0 mph 8.0 mph 72 % 0.00 in
09:20 70.9 °F 61.0 °F 30.08 in East 3.0 mph 8.0 mph 71 % 0.00 in
09:25 71.4 °F 60.8 °F 30.08 in South 4.0 mph 10.0 mph 69 % 0.00 in
09:30 71.6 °F 60.8 °F 30.08 in SE 5.0 mph 12.0 mph 69 % 0.00 in
09:35 72.0 °F 60.8 °F 30.08 in South 6.0 mph 12.0 mph 68 % 0.00 in
09:40 72.3 °F 60.8 °F 30.08 in South 5.0 mph 12.0 mph 67 % 0.00 in
09:45 72.7 °F 61.2 °F 30.08 in SE 3.0 mph 10.0 mph 67 % 0.00 in
09:50 72.9 °F 60.8 °F 30.08 in SSE 6.0 mph 10.0 mph 66 % 0.00 in
09:55 73.0 °F 60.6 °F 30.08 in SSW 7.0 mph 12.0 mph 65 % 0.00 in
10:00 73.6 °F 61.5 °F 30.08 in SSE 5.0 mph 12.0 mph 66 % 0.00 in
10:10 73.8 °F 59.9 °F 30.09 in South 4.0 mph 15.0 mph 62 % 0.00 in
10:15 73.9 °F 60.1 °F 30.08 in SE 9.0 mph 15.0 mph 62 % 0.00 in
10:20 73.9 °F 60.1 °F 30.08 in SSE 7.0 mph 13.0 mph 62 % 0.00 in
10:25 74.5 °F 61.0 °F 30.08 in SW 6.0 mph 13.0 mph 63 % 0.00 in
10:30 74.8 °F 60.1 °F 30.08 in South 8.0 mph 13.0 mph 60 % 0.00 in
10:35 75.0 °F 60.3 °F 30.09 in SSW 10.0 mph 14.0 mph 60 % 0.00 in
10:40 75.4 °F 60.1 °F 30.09 in ENE 5.0 mph 14.0 mph 59 % 0.00 in
10:45 75.6 °F 60.3 °F 30.09 in South 16.0 mph 16.0 mph 59 % 0.00 in
10:50 75.7 °F 60.4 °F 30.09 in SW 6.0 mph 16.0 mph 59 % 0.00 in
10:55 76.1 °F 60.8 °F 30.09 in SSE 2.0 mph 16.0 mph 59 % 0.00 in
10:56 76.3 °F 61.3 °F 30.09 in WSW 3.0 mph 16.0 mph 60 % 0.00 in
11:06 76.5 °F 59.5 °F 30.09 in WSW 5.0 mph 15.0 mph 56 % 0.00 in
11:11 76.5 °F 58.6 °F 30.09 in SSE 8.0 mph 16.0 mph 54 % 0.00 in
11:16 76.5 °F 59.2 °F 30.09 in South 10.0 mph 16.0 mph 55 % 0.00 in
11:21 76.5 °F 59.5 °F 30.09 in South 6.0 mph 16.0 mph 56 % 0.00 in
11:26 76.8 °F 58.5 °F 30.09 in SW 6.0 mph 16.0 mph 53 % 0.00 in
11:31 76.8 °F 59.0 °F 30.09 in SSE 7.0 mph 16.0 mph 54 % 0.00 in
11:36 77.4 °F 58.8 °F 30.09 in South 15.0 mph 15.0 mph 53 % 0.00 in
11:41 77.4 °F 59.9 °F 30.09 in SW 6.0 mph 18.0 mph 55 % 0.00 in
11:46 77.4 °F 57.7 °F 30.09 in SSE 8.0 mph 18.0 mph 51 % 0.00 in
11:51 77.2 °F 57.7 °F 30.09 in South 3.0 mph 18.0 mph 51 % 0.00 in
11:56 77.5 °F 59.5 °F 30.09 in South 10.0 mph 14.0 mph 54 % 0.00 in
12:01 77.7 °F 59.2 °F 30.08 in SSE 6.0 mph 16.0 mph 53 % 0.00 in
12:06 77.9 °F 58.8 °F 30.08 in South 8.0 mph 16.0 mph 52 % 0.00 in
12:11 77.7 °F 57.6 °F 30.08 in SSE 7.0 mph 16.0 mph 50 % 0.00 in
12:16 77.9 °F 57.2 °F 30.08 in SSW 9.0 mph 16.0 mph 49 % 0.00 in
12:18 77.9 °F 58.8 °F 30.08 in SSE 7.0 mph 16.0 mph 52 % 0.00 in
12:23 78.1 °F 58.5 °F 30.08 in South 8.0 mph 16.0 mph 51 % 0.00 in
12:28 78.6 °F 59.0 °F 30.08 in SSE 8.0 mph 16.0 mph 51 % 0.00 in
12:33 78.6 °F 58.5 °F 30.07 in SSE 10.0 mph 15.0 mph 50 % 0.00 in
12:38 78.6 °F 57.9 °F 30.07 in SE 8.0 mph 13.0 mph 49 % 0.00 in
12:43 78.8 °F 56.8 °F 30.07 in South 7.0 mph 13.0 mph 47 % 0.00 in
12:48 79.0 °F 58.1 °F 30.07 in ESE 17.0 mph 17.0 mph 49 % 0.00 in
12:53 79.2 °F 59.5 °F 30.06 in SSE 4.0 mph 19.0 mph 51 % 0.00 in
12:58 79.3 °F 58.5 °F 30.06 in SSE 6.0 mph 19.0 mph 49 % 0.00 in
13:03 79.7 °F 58.8 °F 30.06 in SE 7.0 mph 19.0 mph 49 % 0.00 in
13:08 79.9 °F 59.5 °F 30.06 in SE 9.0 mph 16.0 mph 50 % 0.00 in
13:13 80.1 °F 58.1 °F 30.05 in ESE 8.0 mph 16.0 mph 47 % 0.00 in
13:18 79.7 °F 58.8 °F 30.05 in SSE 5.0 mph 16.0 mph 49 % 0.00 in
13:23 80.2 °F 58.1 °F 30.04 in SSE 7.0 mph 16.0 mph 47 % 0.00 in
13:28 80.6 °F 57.4 °F 30.04 in SSE 10.0 mph 16.0 mph 45 % 0.00 in
13:33 80.2 °F 57.6 °F 30.04 in SSE 5.0 mph 21.0 mph 46 % 0.00 in
13:38 80.4 °F 59.5 °F 30.04 in South 10.0 mph 21.0 mph 49 % 0.00 in
13:43 80.8 °F 58.1 °F 30.04 in SW 5.0 mph 21.0 mph 46 % 0.00 in
13:48 80.6 °F 58.5 °F 30.04 in SE 13.0 mph 15.0 mph 47 % 0.00 in
13:53 80.4 °F 58.3 °F 30.04 in SSW 8.0 mph 13.0 mph 47 % 0.00 in
13:58 80.8 °F 58.1 °F 30.04 in SSW 8.0 mph 15.0 mph 46 % 0.00 in
14:03 80.8 °F 58.1 °F 30.04 in SSW 8.0 mph 15.0 mph 46 % 0.00 in
14:08 80.4 °F 57.2 °F 30.03 in SW 15.0 mph 17.0 mph 45 % 0.00 in
14:13 80.6 °F 57.4 °F 30.03 in SSW 12.0 mph 17.0 mph 45 % 0.00 in
14:20 80.8 °F 57.4 °F 30.03 in SSE 10.0 mph 20.0 mph 45 % 0.00 in
14:25 81.0 °F 59.4 °F 30.03 in SSE 3.0 mph 20.0 mph 48 % 0.00 in
14:30 81.9 °F 58.5 °F 30.03 in SE 4.0 mph 14.0 mph 45 % 0.00 in
14:35 81.3 °F 57.9 °F 30.02 in SSE 6.0 mph 17.0 mph 45 % 0.00 in
14:40 80.8 °F 59.2 °F 30.02 in South 4.0 mph 17.0 mph 48 % 0.00 in
14:42 81.0 °F 59.4 °F 30.02 in SSE 5.0 mph 17.0 mph 48 % 0.00 in
14:47 81.5 °F 58.1 °F 30.02 in South 6.0 mph 17.0 mph 45 % 0.00 in
14:52 81.9 °F 59.0 °F 30.01 in SE 4.0 mph 11.0 mph 46 % 0.00 in
14:57 81.1 °F 56.5 °F 30.01 in SE 5.0 mph 18.0 mph 43 % 0.00 in
15:02 81.0 °F 57.0 °F 30.01 in SSW 8.0 mph 18.0 mph 44 % 0.00 in
15:07 80.8 °F 57.4 °F 30.01 in ESE 11.0 mph 18.0 mph 45 % 0.00 in
15:12 81.0 °F 59.4 °F 30.01 in SSW 8.0 mph 17.0 mph 48 % 0.00 in
15:17 81.7 °F 58.8 °F 30.00 in South 2.0 mph 17.0 mph 46 % 0.00 in
15:22 81.7 °F 58.8 °F 30.00 in WSW 3.0 mph 16.0 mph 46 % 0.00 in
15:27 81.3 °F 58.6 °F 30.00 in South 7.0 mph 16.0 mph 46 % 0.00 in
15:32 81.1 °F 58.5 °F 30.00 in South 5.0 mph 16.0 mph 46 % 0.00 in
15:37 80.4 °F 58.3 °F 29.99 in SSW 6.0 mph 16.0 mph 47 % 0.00 in
15:42 80.4 °F 57.7 °F 29.99 in SSE 8.0 mph 16.0 mph 46 % 0.00 in
15:47 81.0 °F 58.8 °F 29.99 in ESE 6.0 mph 16.0 mph 47 % 0.00 in
15:52 81.3 °F 59.7 °F 29.99 in SE 4.0 mph 14.0 mph 48 % 0.00 in
15:57 81.5 °F 58.6 °F 29.98 in SE 4.0 mph 16.0 mph 46 % 0.00 in
16:02 81.9 °F 58.5 °F 29.98 in SSW 8.0 mph 16.0 mph 45 % 0.00 in
16:07 81.5 °F 58.1 °F 29.97 in SSE 8.0 mph 16.0 mph 45 % 0.00 in
16:12 81.3 °F 57.4 °F 29.98 in SSE 10.0 mph 13.0 mph 44 % 0.00 in
16:17 81.0 °F 58.3 °F 29.97 in SSE 9.0 mph 15.0 mph 46 % 0.00 in
16:22 81.0 °F 58.3 °F 29.97 in ESE 4.0 mph 17.0 mph 46 % 0.00 in
16:27 80.8 °F 56.8 °F 29.97 in South 10.0 mph 17.0 mph 44 % 0.00 in
16:32 80.8 °F 58.1 °F 29.97 in South 6.0 mph 17.0 mph 46 % 0.00 in
16:37 80.8 °F 57.4 °F 29.96 in SSE 6.0 mph 14.0 mph 45 % 0.00 in
16:42 81.0 °F 57.6 °F 29.96 in SSE 5.0 mph 14.0 mph 45 % 0.00 in
16:47 81.1 °F 57.2 °F 29.96 in South 4.0 mph 14.0 mph 44 % 0.00 in
16:52 80.8 °F 58.1 °F 29.96 in SSW 6.0 mph 14.0 mph 46 % 0.00 in
16:57 80.8 °F 57.4 °F 29.96 in ESE 10.0 mph 14.0 mph 45 % 0.00 in
17:00 80.8 °F 58.1 °F 29.96 in SW 10.0 mph 14.0 mph 46 % 0.00 in
17:05 80.4 °F 57.2 °F 29.95 in SSW 5.0 mph 14.0 mph 45 % 0.00 in
17:10 80.4 °F 57.7 °F 29.95 in South 4.0 mph 15.0 mph 46 % 0.00 in
17:15 80.4 °F 57.2 °F 29.95 in SE 8.0 mph 15.0 mph 45 % 0.00 in
17:20 80.4 °F 57.2 °F 29.94 in SSE 7.0 mph 15.0 mph 45 % 0.00 in
17:25 79.9 °F 57.2 °F 29.94 in SE 13.0 mph 15.0 mph 46 % 0.00 in
17:30 79.7 °F 57.7 °F 29.94 in South 9.0 mph 18.0 mph 47 % 0.00 in
17:35 79.7 °F 57.7 °F 29.94 in East 5.0 mph 18.0 mph 47 % 0.00 in
17:40 79.5 °F 57.6 °F 29.94 in SE 8.0 mph 18.0 mph 47 % 0.00 in
17:45 79.5 °F 58.1 °F 29.94 in SE 6.0 mph 15.0 mph 48 % 0.00 in
17:50 79.3 °F 58.5 °F 29.94 in SE 8.0 mph 15.0 mph 49 % 0.00 in
17:55 79.2 °F 58.3 °F 29.94 in SSE 7.0 mph 15.0 mph 49 % 0.00 in
18:00 79.0 °F 58.1 °F 29.94 in ESE 7.0 mph 18.0 mph 49 % 0.00 in
18:06 78.4 °F 58.3 °F 29.94 in SSE 11.0 mph 18.0 mph 50 % 0.00 in
18:11 78.3 °F 58.6 °F 29.94 in SE 10.0 mph 18.0 mph 51 % 0.00 in
18:16 78.3 °F 59.2 °F 29.94 in SSE 10.0 mph 16.0 mph 52 % 0.00 in
18:21 78.1 °F 58.5 °F 29.94 in ESE 13.0 mph 16.0 mph 51 % 0.00 in
18:26 77.7 °F 58.1 °F 29.94 in ESE 8.0 mph 18.0 mph 51 % 0.00 in
18:31 77.5 °F 58.5 °F 29.94 in SSW 9.0 mph 18.0 mph 52 % 0.00 in
18:36 77.4 °F 58.3 °F 29.95 in SE 4.0 mph 18.0 mph 52 % 0.00 in
18:41 77.2 °F 58.3 °F 29.95 in SE 9.0 mph 17.0 mph 52 % 0.00 in
18:46 76.6 °F 58.3 °F 29.95 in SSW 7.0 mph 17.0 mph 53 % 0.00 in
18:51 76.5 °F 58.1 °F 29.95 in SSW 6.0 mph 16.0 mph 53 % 0.00 in
18:56 76.3 °F 58.5 °F 29.95 in SSE 7.0 mph 17.0 mph 54 % 0.00 in
19:01 76.1 °F 58.3 °F 29.95 in SE 10.0 mph 17.0 mph 54 % 0.00 in
19:06 75.7 °F 57.9 °F 29.95 in SE 8.0 mph 17.0 mph 54 % 0.00 in
19:11 75.6 °F 58.3 °F 29.95 in SSE 3.0 mph 15.0 mph 55 % 0.00 in
19:16 75.0 °F 57.7 °F 29.95 in South 4.0 mph 15.0 mph 55 % 0.00 in
19:21 74.8 °F 58.1 °F 29.95 in SW 9.0 mph 13.0 mph 56 % 0.00 in
19:26 74.5 °F 57.7 °F 29.96 in SE 9.0 mph 14.0 mph 56 % 0.00 in
19:31 74.1 °F 57.4 °F 29.96 in SSW 4.0 mph 14.0 mph 56 % 0.00 in
19:36 73.9 °F 57.7 °F 29.96 in South 3.0 mph 14.0 mph 57 % 0.00 in
19:41 73.8 °F 57.6 °F 29.96 in South 8.0 mph 15.0 mph 57 % 0.00 in
19:46 73.4 °F 57.7 °F 29.96 in SE 8.0 mph 15.0 mph 58 % 0.00 in
19:51 73.2 °F 57.6 °F 29.96 in SSW 4.0 mph 15.0 mph 58 % 0.00 in
19:56 73.0 °F 57.4 °F 29.96 in ESE 5.0 mph 15.0 mph 58 % 0.00 in
20:01 72.9 °F 57.7 °F 29.96 in South 6.0 mph 14.0 mph 59 % 0.00 in
20:06 72.7 °F 57.6 °F 29.96 in SSW 6.0 mph 14.0 mph 59 % 0.00 in
20:11 72.7 °F 57.6 °F 29.96 in SSE 10.0 mph 16.0 mph 59 % 0.00 in
20:16 72.3 °F 57.7 °F 29.96 in SE 7.0 mph 16.0 mph 60 % 0.00 in
20:21 72.1 °F 57.6 °F 29.96 in SSW 5.0 mph 16.0 mph 60 % 0.00 in
20:26 72.0 °F 57.7 °F 29.96 in SE 4.0 mph 12.0 mph 61 % 0.00 in
20:31 72.0 °F 57.7 °F 29.96 in SSE 10.0 mph 13.0 mph 61 % 0.00 in
20:36 72.0 °F 57.7 °F 29.96 in SSE 5.0 mph 13.0 mph 61 % 0.00 in
20:41 71.6 °F 57.9 °F 29.96 in SSE 7.0 mph 13.0 mph 62 % 0.00 in
20:46 71.4 °F 57.7 °F 29.96 in SE 5.0 mph 12.0 mph 62 % 0.00 in
20:51 71.2 °F 57.9 °F 29.96 in SSE 6.0 mph 10.0 mph 63 % 0.00 in
20:56 71.1 °F 57.7 °F 29.96 in ESE 7.0 mph 11.0 mph 63 % 0.00 in
21:01 71.1 °F 57.7 °F 29.97 in SE 3.0 mph 12.0 mph 63 % 0.00 in
21:06 70.9 °F 58.1 °F 29.97 in ESE 4.0 mph 12.0 mph 64 % 0.00 in
21:16 70.5 °F 57.7 °F 29.97 in SE 3.0 mph 11.0 mph 64 % 0.00 in
21:21 70.5 °F 58.1 °F 29.97 in SE 9.0 mph 10.0 mph 65 % 0.00 in
21:26 70.3 °F 58.1 °F 29.98 in ESE 6.0 mph 10.0 mph 65 % 0.00 in
21:31 70.3 °F 58.1 °F 29.98 in South 3.0 mph 10.0 mph 65 % 0.00 in
21:36 70.2 °F 57.9 °F 29.98 in East 4.0 mph 10.0 mph 65 % 0.00 in
21:41 70.0 °F 58.1 °F 29.98 in SSE 7.0 mph 9.0 mph 66 % 0.00 in
21:46 70.0 °F 58.1 °F 29.98 in SE 5.0 mph 9.0 mph 66 % 0.00 in
21:51 69.8 °F 57.9 °F 29.98 in ESE 2.0 mph 12.0 mph 66 % 0.00 in
21:56 69.6 °F 58.1 °F 29.98 in South 7.0 mph 12.0 mph 67 % 0.00 in
22:01 69.6 °F 58.1 °F 29.98 in SE 4.0 mph 12.0 mph 67 % 0.00 in
22:06 69.4 °F 57.9 °F 29.99 in SE 5.0 mph 8.0 mph 67 % 0.00 in
22:11 69.3 °F 58.3 °F 29.99 in SSE 2.0 mph 8.0 mph 68 % 0.00 in
22:16 69.1 °F 58.1 °F 29.99 in SSE 3.0 mph 7.0 mph 68 % 0.00 in
22:21 68.9 °F 58.3 °F 29.99 in South 4.0 mph 6.0 mph 69 % 0.00 in
22:26 68.7 °F 58.1 °F 29.99 in South 3.0 mph 6.0 mph 69 % 0.00 in
22:31 68.7 °F 58.5 °F 29.99 in SSE 5.0 mph 6.0 mph 70 % 0.00 in
22:36 68.5 °F 58.3 °F 29.99 in SSE 3.0 mph 7.0 mph 70 % 0.00 in
22:41 68.5 °F 58.3 °F 29.99 in SSE 3.0 mph 7.0 mph 70 % 0.00 in
22:46 68.4 °F 58.3 °F 29.99 in SSE 1.0 mph 7.0 mph 70 % 0.00 in
22:47 68.4 °F 58.3 °F 29.99 in South 3.0 mph 7.0 mph 70 % 0.00 in
22:57 68.2 °F 58.5 °F 29.99 in SE 2.0 mph 8.0 mph 71 % 0.00 in
23:02 68.2 °F 58.8 °F 29.99 in East 2.0 mph 8.0 mph 72 % 0.00 in
23:07 68.0 °F 58.6 °F 29.99 in SSE 3.0 mph 6.0 mph 72 % 0.00 in
23:12 68.0 °F 58.6 °F 29.99 in SE 3.0 mph 6.0 mph 72 % 0.00 in
23:17 67.8 °F 58.5 °F 29.99 in South 2.0 mph 6.0 mph 72 % 0.00 in
23:22 67.8 °F 58.8 °F 29.99 in SE 4.0 mph 7.0 mph 73 % 0.00 in
23:27 67.8 °F 58.8 °F 29.99 in South 2.0 mph 8.0 mph 73 % 0.00 in
23:32 67.6 °F 58.6 °F 29.99 in SE 6.0 mph 8.0 mph 73 % 0.00 in
23:37 67.6 °F 59.0 °F 29.99 in SSE 4.0 mph 8.0 mph 74 % 0.00 in
23:42 67.6 °F 59.0 °F 29.98 in ESE 4.0 mph 7.0 mph 74 % 0.00 in
23:47 67.6 °F 59.0 °F 29.98 in South 3.0 mph 8.0 mph 74 % 0.00 in
23:52 67.6 °F 59.0 °F 29.98 in SE 3.0 mph 8.0 mph 74 % 0.00 in
23:57 67.5 °F 59.2 °F 29.98 in ESE 2.0 mph 8.0 mph 75 % 0.00 in
Spring, Texas: Villages of Bridgestone
Compliments of Weather Underground - 2.75 mb

Script developed by  Jim McMurry - jmcmurry@mwt.net Adapted for the template by  Wim van der Kuil - Leuven-Template.eu

You find our weather info also at:

UK Metoffice

WeatherCloud

Weather Underground

Mid-South Weather Network

AWEKAS

Citizen Weather Observer Program (CWOP)

HAMweather, WeatherForYou, PWS Weather

Equipment we use:

Weather-station
Davis Vantage Vue

Weather-program
Meteohub

Weather-server
Debian 7.9 x86 (Guest)

Provider
DreamHost

Davis Vantage Vue

Meteohub

Debian 7.9 x86 (Guest)

DreamHost